sensor_id;sensor_type;location;lat;lon;timestamp;pressure;altitude;pressure_sealevel;temperature;humidity
21086;BME280;34247;50.064;19.970;2022-12-29T00:00:28;99324.91;;;5.35;63.93
21086;BME280;34247;50.064;19.970;2022-12-29T00:01:38;99325.78;;;5.35;63.96
21086;BME280;34247;50.064;19.970;2022-12-29T00:02:45;99325.72;;;5.37;63.79
21086;BME280;34247;50.064;19.970;2022-12-29T00:03:52;99324.00;;;5.36;63.90
21086;BME280;34247;50.064;19.970;2022-12-29T00:05:01;99324.00;;;5.36;64.11
21086;BME280;34247;50.064;19.970;2022-12-29T00:06:07;99323.09;;;5.37;64.06
21086;BME280;34247;50.064;19.970;2022-12-29T00:07:15;99327.44;;;5.38;64.03
21086;BME280;34247;50.064;19.970;2022-12-29T00:08:23;99323.00;;;5.38;63.98
21086;BME280;34247;50.064;19.970;2022-12-29T00:09:45;99332.69;;;5.38;64.15
21086;BME280;34247;50.064;19.970;2022-12-29T00:10:54;99321.31;;;5.37;64.23
21086;BME280;34247;50.064;19.970;2022-12-29T00:12:03;99329.13;;;5.39;64.16
21086;BME280;34247;50.064;19.970;2022-12-29T00:13:10;99324.72;;;5.39;64.38
21086;BME280;34247;50.064;19.970;2022-12-29T00:14:34;99324.16;;;5.33;64.19
21086;BME280;34247;50.064;19.970;2022-12-29T00:15:59;99331.97;;;5.34;64.36
21086;BME280;34247;50.064;19.970;2022-12-29T00:17:04;99334.53;;;5.36;64.28
21086;BME280;34247;50.064;19.970;2022-12-29T00:18:10;99329.25;;;5.36;64.46
21086;BME280;34247;50.064;19.970;2022-12-29T00:19:16;99330.25;;;5.33;64.56
21086;BME280;34247;50.064;19.970;2022-12-29T00:20:44;99337.22;;;5.34;64.53
21086;BME280;34247;50.064;19.970;2022-12-29T00:22:12;99327.56;;;5.35;64.65
21086;BME280;34247;50.064;19.970;2022-12-29T00:23:37;99338.06;;;5.35;64.35
21086;BME280;34247;50.064;19.970;2022-12-29T00:25:04;99335.44;;;5.35;64.17
21086;BME280;34247;50.064;19.970;2022-12-29T00:26:30;99334.59;;;5.34;64.58
21086;BME280;34247;50.064;19.970;2022-12-29T00:28:06;99326.00;;;5.31;64.37
21086;BME280;34247;50.064;19.970;2022-12-29T00:29:37;99331.19;;;5.32;64.43
21086;BME280;34247;50.064;19.970;2022-12-29T00:31:01;99331.13;;;5.34;64.37
21086;BME280;34247;50.064;19.970;2022-12-29T00:32:26;99332.03;;;5.33;64.11
21086;BME280;34247;50.064;19.970;2022-12-29T00:33:51;99331.19;;;5.32;64.04
21086;BME280;34247;50.064;19.970;2022-12-29T00:35:29;99337.22;;;5.34;64.34
21086;BME280;34247;50.064;19.970;2022-12-29T00:36:42;99336.38;;;5.34;64.06
21086;BME280;34247;50.064;19.970;2022-12-29T00:37:48;99333.66;;;5.35;63.99
21086;BME280;34247;50.064;19.970;2022-12-29T00:39:24;99324.88;;;5.36;64.20
21086;BME280;34247;50.064;19.970;2022-12-29T00:40:49;99324.91;;;5.35;64.14
21086;BME280;34247;50.064;19.970;2022-12-29T00:42:15;99329.13;;;5.39;64.16
21086;BME280;34247;50.064;19.970;2022-12-29T00:43:39;99323.94;;;5.37;63.85
21086;BME280;34247;50.064;19.970;2022-12-29T00:45:09;99320.75;;;5.31;64.07
21086;BME280;34247;50.064;19.970;2022-12-29T00:46:14;99324.31;;;5.30;64.05
21086;BME280;34247;50.064;19.970;2022-12-29T00:47:22;99332.97;;;5.32;64.27
21086;BME280;34247;50.064;19.970;2022-12-29T00:48:30;99332.03;;;5.33;64.27
21086;BME280;34247;50.064;19.970;2022-12-29T00:49:55;99331.13;;;5.34;64.41
21086;BME280;34247;50.064;19.970;2022-12-29T00:51:03;99325.78;;;5.35;64.08
21086;BME280;34247;50.064;19.970;2022-12-29T00:52:20;99327.44;;;5.38;63.86
21086;BME280;34247;50.064;19.970;2022-12-29T00:53:27;99334.47;;;5.37;64.09
21086;BME280;34247;50.064;19.970;2022-12-29T00:54:35;99335.25;;;5.39;63.99
21086;BME280;34247;50.064;19.970;2022-12-29T00:55:44;99329.91;;;5.41;64.03
21086;BME280;34247;50.064;19.970;2022-12-29T00:56:52;99324.56;;;5.42;63.59
21086;BME280;34247;50.064;19.970;2022-12-29T00:57:58;99323.72;;;5.42;63.71
21086;BME280;34247;50.064;19.970;2022-12-29T00:59:10;99328.03;;;5.43;63.62
21086;BME280;34247;50.064;19.970;2022-12-29T01:00:19;99334.97;;;5.45;63.49
21086;BME280;34247;50.064;19.970;2022-12-29T01:01:26;99320.88;;;5.46;63.50
21086;BME280;34247;50.064;19.970;2022-12-29T01:02:33;99333.97;;;5.48;63.40
21086;BME280;34247;50.064;19.970;2022-12-29T01:03:39;99329.47;;;5.50;63.60
21086;BME280;34247;50.064;19.970;2022-12-29T01:04:48;99327.72;;;5.50;63.22
21086;BME280;34247;50.064;19.970;2022-12-29T01:05:52;99330.41;;;5.49;63.37
21086;BME280;34247;50.064;19.970;2022-12-29T01:07:07;99333.84;;;5.51;63.18
21086;BME280;34247;50.064;19.970;2022-12-29T01:08:12;99326.91;;;5.48;63.32
21086;BME280;34247;50.064;19.970;2022-12-29T01:09:18;99330.28;;;5.52;63.33
21086;BME280;34247;50.064;19.970;2022-12-29T01:10:41;99332.97;;;5.50;63.21
21086;BME280;34247;50.064;19.970;2022-12-29T01:11:50;99337.38;;;5.50;63.26
21086;BME280;34247;50.064;19.970;2022-12-29T01:12:54;99330.47;;;5.47;63.14
21086;BME280;34247;50.064;19.970;2022-12-29T01:13:58;99328.69;;;5.48;63.28
21086;BME280;34247;50.064;19.970;2022-12-29T01:15:15;99336.59;;;5.48;63.18
21086;BME280;34247;50.064;19.970;2022-12-29T01:16:21;99328.69;;;5.48;63.33
21086;BME280;34247;50.064;19.970;2022-12-29T01:17:27;99326.91;;;5.48;63.40
21086;BME280;34247;50.064;19.970;2022-12-29T01:18:31;99328.69;;;5.48;63.41
21086;BME280;34247;50.064;19.970;2022-12-29T01:19:35;99319.00;;;5.48;63.34
21086;BME280;34247;50.064;19.970;2022-12-29T01:20:40;99319.00;;;5.48;63.41
21086;BME280;34247;50.064;19.970;2022-12-29T01:21:54;99319.88;;;5.49;63.44
21086;BME280;34247;50.064;19.970;2022-12-29T01:22:59;99318.16;;;5.48;63.52
21086;BME280;34247;50.064;19.970;2022-12-29T01:24:07;99317.22;;;5.49;63.56
21086;BME280;34247;50.064;19.970;2022-12-29T01:25:18;99310.34;;;5.46;63.54
21086;BME280;34247;50.064;19.970;2022-12-29T01:26:27;99311.97;;;5.49;63.57
21086;BME280;34247;50.064;19.970;2022-12-29T01:27:33;99309.34;;;5.49;63.54
21086;BME280;34247;50.064;19.970;2022-12-29T01:28:40;99302.38;;;5.48;63.47
21086;BME280;34247;50.064;19.970;2022-12-29T01:29:46;99309.34;;;5.49;63.69
21086;BME280;34247;50.064;19.970;2022-12-29T01:30:50;99303.09;;;5.51;63.68
21086;BME280;34247;50.064;19.970;2022-12-29T01:31:59;99296.97;;;5.51;63.54
21086;BME280;34247;50.064;19.970;2022-12-29T01:33:26;99291.72;;;5.51;63.68
21086;BME280;34247;50.064;19.970;2022-12-29T01:34:32;99286.44;;;5.51;63.47
21086;BME280;34247;50.064;19.970;2022-12-29T01:35:50;99294.34;;;5.51;63.62
21086;BME280;34247;50.064;19.970;2022-12-29T01:36:59;99299.59;;;5.51;63.77
21086;BME280;34247;50.064;19.970;2022-12-29T01:38:12;99290.91;;;5.49;63.64
21086;BME280;34247;50.064;19.970;2022-12-29T01:39:25;99289.97;;;5.50;63.68
21086;BME280;34247;50.064;19.970;2022-12-29T01:40:31;99289.97;;;5.50;63.44
21086;BME280;34247;50.064;19.970;2022-12-29T01:41:39;99286.50;;;5.49;63.83
21086;BME280;34247;50.064;19.970;2022-12-29T01:42:44;99294.25;;;5.52;63.64
21086;BME280;34247;50.064;19.970;2022-12-29T01:43:57;99289.84;;;5.53;63.46
21086;BME280;34247;50.064;19.970;2022-12-29T01:45:17;99282.81;;;5.53;63.65
21086;BME280;34247;50.064;19.970;2022-12-29T01:46:36;99286.19;;;5.56;63.53
21086;BME280;34247;50.064;19.970;2022-12-29T01:47:58;99287.91;;;5.57;63.59
21086;BME280;34247;50.064;19.970;2022-12-29T01:49:16;99290.50;;;5.58;63.44
21086;BME280;34247;50.064;19.970;2022-12-29T01:50:37;99289.56;;;5.59;63.26
21086;BME280;34247;50.064;19.970;2022-12-29T01:52:04;99288.63;;;5.60;63.08
21086;BME280;34247;50.064;19.970;2022-12-29T01:53:24;99286.00;;;5.60;63.16
21086;BME280;34247;50.064;19.970;2022-12-29T01:54:34;99286.00;;;5.60;63.24
21086;BME280;34247;50.064;19.970;2022-12-29T01:55:47;99280.72;;;5.60;63.15
21086;BME280;34247;50.064;19.970;2022-12-29T01:56:54;99288.47;;;5.63;63.11
21086;BME280;34247;50.064;19.970;2022-12-29T01:58:04;99287.69;;;5.61;62.93
21086;BME280;34247;50.064;19.970;2022-12-29T01:59:18;99285.84;;;5.63;63.04
21086;BME280;34247;50.064;19.970;2022-12-29T02:00:33;99297.16;;;5.65;63.38
21086;BME280;34247;50.064;19.970;2022-12-29T02:01:45;99289.28;;;5.65;62.98
21086;BME280;34247;50.064;19.970;2022-12-29T02:02:53;99289.28;;;5.65;62.92
21086;BME280;34247;50.064;19.970;2022-12-29T02:04:00;99287.31;;;5.69;62.75
21086;BME280;34247;50.064;19.970;2022-12-29T02:05:29;99279.44;;;5.69;62.34
21086;BME280;34247;50.064;19.970;2022-12-29T02:06:59;99275.00;;;5.69;62.61
21086;BME280;34247;50.064;19.970;2022-12-29T02:08:14;99279.44;;;5.69;62.81
21086;BME280;34247;50.064;19.970;2022-12-29T02:09:25;99277.66;;;5.69;62.61
21086;BME280;34247;50.064;19.970;2022-12-29T02:10:33;99274.06;;;5.70;62.69
21086;BME280;34247;50.064;19.970;2022-12-29T02:11:40;99269.75;;;5.69;62.58
21086;BME280;34247;50.064;19.970;2022-12-29T02:12:49;99277.56;;;5.71;62.84
21086;BME280;34247;50.064;19.970;2022-12-29T02:14:00;99279.44;;;5.69;62.68
21086;BME280;34247;50.064;19.970;2022-12-29T02:15:11;99278.50;;;5.70;63.10
21086;BME280;34247;50.064;19.970;2022-12-29T02:27:43;99276.09;;;5.65;63.44
21086;BME280;34247;50.064;19.970;2022-12-29T02:34:47;99266.34;;;5.67;63.09
21086;BME280;34247;50.064;19.970;2022-12-29T02:36:29;99263.63;;;5.69;63.29
21086;BME280;34247;50.064;19.970;2022-12-29T02:37:59;99254.94;;;5.67;63.30
21086;BME280;34247;50.064;19.970;2022-12-29T02:43:56;99249.69;;;5.67;63.23
21086;BME280;34247;50.064;19.970;2022-12-29T02:46:44;99236.44;;;5.68;63.14
21086;BME280;34247;50.064;19.970;2022-12-29T02:48:07;99244.25;;;5.70;63.28
21086;BME280;34247;50.064;19.970;2022-12-29T02:49:39;99233.63;;;5.71;63.46
21086;BME280;34247;50.064;19.970;2022-12-29T02:51:15;99228.38;;;5.71;63.38
21086;BME280;34247;50.064;19.970;2022-12-29T02:52:40;99229.31;;;5.70;63.40
21086;BME280;34247;50.064;19.970;2022-12-29T02:53:51;99230.97;;;5.73;63.66
21086;BME280;34247;50.064;19.970;2022-12-29T02:55:31;99228.31;;;5.73;63.65
21086;BME280;34247;50.064;19.970;2022-12-29T02:56:37;99233.50;;;5.74;63.46
21086;BME280;34247;50.064;19.970;2022-12-29T02:57:45;99231.72;;;5.75;63.40
21086;BME280;34247;50.064;19.970;2022-12-29T02:58:53;99231.72;;;5.75;63.62
21086;BME280;34247;50.064;19.970;2022-12-29T03:00:08;99221.09;;;5.76;63.37
21086;BME280;34247;50.064;19.970;2022-12-29T03:09:27;99223.44;;;5.82;63.30
21086;BME280;34247;50.064;19.970;2022-12-29T03:10:59;99222.50;;;5.84;63.00
21086;BME280;34247;50.064;19.970;2022-12-29T03:12:23;99222.38;;;5.87;62.63
21086;BME280;34247;50.064;19.970;2022-12-29T03:13:54;99216.94;;;5.90;62.65
21086;BME280;34247;50.064;19.970;2022-12-29T03:15:43;99208.97;;;5.91;62.28
21086;BME280;34247;50.064;19.970;2022-12-29T03:17:20;99213.88;;;5.99;62.18
21086;BME280;34247;50.064;19.970;2022-12-29T03:19:54;99209.91;;;6.07;62.23
21086;BME280;34247;50.064;19.970;2022-12-29T03:21:29;99203.56;;;6.12;62.12
21086;BME280;34247;50.064;19.970;2022-12-29T03:23:03;99204.31;;;6.14;62.08
21086;BME280;34247;50.064;19.970;2022-12-29T03:24:18;99203.34;;;6.16;62.06
21086;BME280;34247;50.064;19.970;2022-12-29T03:25:39;99205.88;;;6.18;61.79
21086;BME280;34247;50.064;19.970;2022-12-29T03:26:58;99206.56;;;6.21;62.06
21086;BME280;34247;50.064;19.970;2022-12-29T03:28:46;99210.91;;;6.22;61.91
21086;BME280;34247;50.064;19.970;2022-12-29T03:30:01;99205.63;;;6.22;61.90
21086;BME280;34247;50.064;19.970;2022-12-29T03:31:10;99215.28;;;6.23;62.06
21086;BME280;34247;50.064;19.970;2022-12-29T03:32:35;99208.13;;;6.25;61.98
21086;BME280;34247;50.064;19.970;2022-12-29T03:33:43;99208.22;;;6.24;61.97
21086;BME280;34247;50.064;19.970;2022-12-29T03:34:52;99216.03;;;6.25;62.06
21086;BME280;34247;50.064;19.970;2022-12-29T03:36:08;99221.13;;;6.28;62.12
21086;BME280;34247;50.064;19.970;2022-12-29T03:37:27;99215.84;;;6.28;62.27
21086;BME280;34247;50.064;19.970;2022-12-29T03:38:53;99218.50;;;6.28;62.06
21086;BME280;34247;50.064;19.970;2022-12-29T03:40:10;99216.72;;;6.29;61.94
21086;BME280;34247;50.064;19.970;2022-12-29T03:41:45;99215.84;;;6.28;62.06
21086;BME280;34247;50.064;19.970;2022-12-29T03:43:04;99223.69;;;6.30;62.08
21086;BME280;34247;50.064;19.970;2022-12-29T03:44:16;99229.97;;;6.27;61.60
21086;BME280;34247;50.064;19.970;2022-12-29T03:45:27;99231.66;;;6.28;61.68
21086;BME280;34247;50.064;19.970;2022-12-29T03:46:34;99232.47;;;6.30;61.83
21086;BME280;34247;50.064;19.970;2022-12-29T03:47:42;99227.13;;;6.32;61.85
21086;BME280;34247;50.064;19.970;2022-12-29T03:48:50;99219.13;;;6.33;61.87
21086;BME280;34247;50.064;19.970;2022-12-29T03:49:56;99212.28;;;6.29;61.83
21086;BME280;34247;50.064;19.970;2022-12-29T03:51:06;99207.00;;;6.29;62.27
21086;BME280;34247;50.064;19.970;2022-12-29T03:52:14;99209.59;;;6.31;62.27
21086;BME280;34247;50.064;19.970;2022-12-29T03:53:28;99208.88;;;6.27;62.01
21086;BME280;34247;50.064;19.970;2022-12-29T03:54:49;99203.63;;;6.27;62.26
21086;BME280;34247;50.064;19.970;2022-12-29T03:55:55;99213.53;;;6.22;62.55
21086;BME280;34247;50.064;19.970;2022-12-29T03:57:03;99216.03;;;6.25;62.56
21086;BME280;34247;50.064;19.970;2022-12-29T03:58:11;99214.31;;;6.24;62.35
21086;BME280;34247;50.064;19.970;2022-12-29T03:59:19;99219.53;;;6.26;62.32
21086;BME280;34247;50.064;19.970;2022-12-29T04:00:27;99216.88;;;6.26;62.29
21086;BME280;34247;50.064;19.970;2022-12-29T04:01:39;99217.81;;;6.25;62.22
21086;BME280;34247;50.064;19.970;2022-12-29T04:02:48;99221.44;;;6.22;62.17
21086;BME280;34247;50.064;19.970;2022-12-29T04:03:53;99225.94;;;6.20;62.24
21086;BME280;34247;50.064;19.970;2022-12-29T04:05:00;99218.97;;;6.19;62.33
21086;BME280;34247;50.064;19.970;2022-12-29T04:06:07;99225.09;;;6.20;62.62
21086;BME280;34247;50.064;19.970;2022-12-29T04:07:27;99227.81;;;6.18;62.44
21086;BME280;34247;50.064;19.970;2022-12-29T04:08:33;99226.13;;;6.17;62.60
21086;BME280;34247;50.064;19.970;2022-12-29T04:09:40;99228.75;;;6.17;62.46
21086;BME280;34247;50.064;19.970;2022-12-29T04:10:48;99229.59;;;6.18;62.69
21086;BME280;34247;50.064;19.970;2022-12-29T04:11:54;99234.97;;;6.16;62.57
21086;BME280;34247;50.064;19.970;2022-12-29T04:13:00;99240.53;;;6.10;62.34
21086;BME280;34247;50.064;19.970;2022-12-29T04:14:06;99239.75;;;6.08;62.73
21086;BME280;34247;50.064;19.970;2022-12-29T04:15:11;99238.03;;;6.07;62.62
21086;BME280;34247;50.064;19.970;2022-12-29T04:16:17;99236.19;;;6.09;62.52
21086;BME280;34247;50.064;19.970;2022-12-29T04:17:22;99239.59;;;6.11;62.36
21086;BME280;34247;50.064;19.970;2022-12-29T04:18:28;99237.91;;;6.10;62.69
21086;BME280;34247;50.064;19.970;2022-12-29T04:19:31;99233.47;;;6.11;62.93
21086;BME280;34247;50.064;19.970;2022-12-29T04:20:36;99233.56;;;6.09;62.52
21086;BME280;34247;50.064;19.970;2022-12-29T04:21:59;99227.50;;;6.07;62.67
21086;BME280;34247;50.064;19.970;2022-12-29T04:23:06;99232.00;;;6.05;62.71
21086;BME280;34247;50.064;19.970;2022-12-29T04:24:10;99232.84;;;6.05;62.88
21086;BME280;34247;50.064;19.970;2022-12-29T04:25:14;99231.06;;;6.06;62.66
21086;BME280;34247;50.064;19.970;2022-12-29T04:26:20;99214.41;;;6.05;62.79
21086;BME280;34247;50.064;19.970;2022-12-29T04:27:26;99220.44;;;6.07;62.63
21086;BME280;34247;50.064;19.970;2022-12-29T04:28:30;99214.31;;;6.07;62.56
21086;BME280;34247;50.064;19.970;2022-12-29T04:29:35;99215.25;;;6.06;62.87
21086;BME280;34247;50.064;19.970;2022-12-29T04:30:45;99205.75;;;6.03;62.58
21086;BME280;34247;50.064;19.970;2022-12-29T04:31:52;99202.16;;;6.04;62.66
21086;BME280;34247;50.064;19.970;2022-12-29T04:32:56;99207.44;;;6.04;62.94
21086;BME280;34247;50.064;19.970;2022-12-29T04:34:00;99207.44;;;6.04;62.96
21086;BME280;34247;50.064;19.970;2022-12-29T04:35:09;99220.69;;;6.03;62.85
21086;BME280;34247;50.064;19.970;2022-12-29T04:36:15;99208.47;;;6.02;62.82
21086;BME280;34247;50.064;19.970;2022-12-29T04:37:21;99199.75;;;6.00;62.81
21086;BME280;34247;50.064;19.970;2022-12-29T04:38:27;99204.09;;;6.01;62.68
21086;BME280;34247;50.064;19.970;2022-12-29T04:39:31;99197.13;;;6.00;62.79
21086;BME280;34247;50.064;19.970;2022-12-29T04:40:42;99203.25;;;6.00;62.85
21086;BME280;34247;50.064;19.970;2022-12-29T04:41:47;99194.50;;;6.00;62.67
21086;BME280;34247;50.064;19.970;2022-12-29T04:42:51;99193.63;;;5.99;62.60
21086;BME280;34247;50.064;19.970;2022-12-29T04:43:55;99191.94;;;5.98;62.76
21086;BME280;34247;50.064;19.970;2022-12-29T04:44:59;99190.25;;;5.97;62.63
21086;BME280;34247;50.064;19.970;2022-12-29T04:46:05;99192.03;;;5.97;62.34
21086;BME280;34247;50.064;19.970;2022-12-29T04:47:10;99183.34;;;5.95;62.41
21086;BME280;34247;50.064;19.970;2022-12-29T04:48:15;99190.25;;;5.97;62.63
21086;BME280;34247;50.064;19.970;2022-12-29T04:49:23;99189.47;;;5.95;62.43
21086;BME280;34247;50.064;19.970;2022-12-29T04:50:28;99187.06;;;5.91;62.46
21086;BME280;34247;50.064;19.970;2022-12-29T04:51:32;99183.50;;;5.92;62.98
21086;BME280;34247;50.064;19.970;2022-12-29T04:52:36;99182.69;;;5.90;62.75
21086;BME280;34247;50.064;19.970;2022-12-29T04:53:41;99180.06;;;5.90;62.81
21086;BME280;34247;50.064;19.970;2022-12-29T04:54:45;99182.69;;;5.90;62.60
21086;BME280;34247;50.064;19.970;2022-12-29T04:55:51;99172.16;;;5.90;62.86
21086;BME280;34247;50.064;19.970;2022-12-29T04:56:55;99172.16;;;5.90;62.84
21086;BME280;34247;50.064;19.970;2022-12-29T04:57:59;99173.88;;;5.91;62.62
21086;BME280;34247;50.064;19.970;2022-12-29T04:59:03;99172.25;;;5.88;62.45
21086;BME280;34247;50.064;19.970;2022-12-29T05:00:11;99180.22;;;5.87;62.46
21086;BME280;34247;50.064;19.970;2022-12-29T05:01:16;99173.22;;;5.86;62.58
21086;BME280;34247;50.064;19.970;2022-12-29T05:02:20;99177.72;;;5.84;62.75
21086;BME280;34247;50.064;19.970;2022-12-29T05:03:25;99180.22;;;5.87;62.77
21086;BME280;34247;50.064;19.970;2022-12-29T05:04:29;99181.94;;;5.88;62.84
21086;BME280;34247;50.064;19.970;2022-12-29T05:05:34;99178.34;;;5.89;62.62
21086;BME280;34247;50.064;19.970;2022-12-29T05:06:39;99179.22;;;5.89;62.53
21086;BME280;34247;50.064;19.970;2022-12-29T05:07:44;99176.56;;;5.89;62.31
21086;BME280;34247;50.064;19.970;2022-12-29T05:08:48;99177.41;;;5.90;62.14
21086;BME280;34247;50.064;19.970;2022-12-29T05:09:52;99171.31;;;5.89;62.23
21086;BME280;34247;50.064;19.970;2022-12-29T05:10:57;99179.44;;;5.85;61.74
21086;BME280;34247;50.064;19.970;2022-12-29T05:12:01;99175.09;;;5.84;61.82
21086;BME280;34247;50.064;19.970;2022-12-29T05:13:05;99175.25;;;5.80;61.84
21086;BME280;34247;50.064;19.970;2022-12-29T05:14:10;99172.69;;;5.79;61.69
21086;BME280;34247;50.064;19.970;2022-12-29T05:15:13;99164.72;;;5.80;61.61
21086;BME280;34247;50.064;19.970;2022-12-29T05:16:17;99171.69;;;5.81;61.08
21086;BME280;34247;50.064;19.970;2022-12-29T05:17:21;99162.84;;;5.82;61.15
21086;BME280;34247;50.064;19.970;2022-12-29T05:18:29;99166.88;;;5.90;60.77
21086;BME280;34247;50.064;19.970;2022-12-29T05:19:34;99169.53;;;5.90;60.46
21086;BME280;34247;50.064;19.970;2022-12-29T05:20:39;99161.44;;;5.94;60.62
21086;BME280;34247;50.064;19.970;2022-12-29T05:21:43;99156.59;;;6.02;60.33
21086;BME280;34247;50.064;19.970;2022-12-29T05:22:48;99152.03;;;6.06;60.44
21086;BME280;34247;50.064;19.970;2022-12-29T05:23:52;99164.03;;;6.12;60.26
21086;BME280;34247;50.064;19.970;2022-12-29T05:24:56;99143.88;;;6.11;59.86
21086;BME280;34247;50.064;19.970;2022-12-29T05:26:01;99152.63;;;6.11;59.95
21086;BME280;34247;50.064;19.970;2022-12-29T05:27:04;99147.28;;;6.13;59.57
21086;BME280;34247;50.064;19.970;2022-12-29T05:28:12;99137.50;;;6.15;59.48
21086;BME280;34247;50.064;19.970;2022-12-29T05:29:17;99141.00;;;6.15;59.33
21086;BME280;34247;50.064;19.970;2022-12-29T05:30:22;99137.28;;;6.19;59.56
21086;BME280;34247;50.064;19.970;2022-12-29T05:31:27;99139.91;;;6.19;59.42
21086;BME280;34247;50.064;19.970;2022-12-29T05:32:32;99136.09;;;6.25;59.36
21086;BME280;34247;50.064;19.970;2022-12-29T05:33:37;99137.72;;;6.27;59.45
21086;BME280;34247;50.064;19.970;2022-12-29T05:34:41;99152.44;;;6.31;59.09
21086;BME280;34247;50.064;19.970;2022-12-29T05:35:46;99153.31;;;6.32;59.20
21086;BME280;34247;50.064;19.970;2022-12-29T05:36:49;99152.28;;;6.34;59.53
21086;BME280;34247;50.064;19.970;2022-12-29T05:37:53;99159.16;;;6.37;59.55
21086;BME280;34247;50.064;19.970;2022-12-29T05:38:56;99160.94;;;6.36;59.20
21086;BME280;34247;50.064;19.970;2022-12-29T05:40:01;99168.31;;;6.30;59.27
21086;BME280;34247;50.064;19.970;2022-12-29T05:41:04;99166.72;;;6.27;60.03
21086;BME280;34247;50.064;19.970;2022-12-29T05:42:08;99165.94;;;6.25;59.83
21086;BME280;34247;50.064;19.970;2022-12-29T05:43:12;99171.91;;;6.29;59.59
21086;BME280;34247;50.064;19.970;2022-12-29T05:44:16;99159.56;;;6.29;59.75
21086;BME280;34247;50.064;19.970;2022-12-29T05:45:20;99157.72;;;6.31;59.92
21086;BME280;34247;50.064;19.970;2022-12-29T05:46:24;99159.56;;;6.29;60.00
21086;BME280;34247;50.064;19.970;2022-12-29T05:47:29;99150.66;;;6.32;59.92
21086;BME280;34247;50.064;19.970;2022-12-29T05:48:35;99148.88;;;6.32;60.14
21086;BME280;34247;50.064;19.970;2022-12-29T05:49:41;99159.34;;;6.34;59.86
21086;BME280;34247;50.064;19.970;2022-12-29T05:50:51;99156.69;;;6.34;59.78
21086;BME280;34247;50.064;19.970;2022-12-29T05:51:55;99162.81;;;6.34;59.84
21086;BME280;34247;50.064;19.970;2022-12-29T05:53:00;99165.47;;;6.34;59.90
21086;BME280;34247;50.064;19.970;2022-12-29T05:54:05;99168.94;;;6.35;59.93
21086;BME280;34247;50.064;19.970;2022-12-29T05:55:08;99174.47;;;6.30;59.50
21086;BME280;34247;50.064;19.970;2022-12-29T05:56:12;99174.38;;;6.32;59.66
21086;BME280;34247;50.064;19.970;2022-12-29T05:57:16;99169.03;;;6.33;59.75
21086;BME280;34247;50.064;19.970;2022-12-29T05:58:19;99179.47;;;6.35;59.79
21086;BME280;34247;50.064;19.970;2022-12-29T05:59:23;99179.47;;;6.35;59.72
21086;BME280;34247;50.064;19.970;2022-12-29T06:00:28;99169.78;;;6.35;59.84
21086;BME280;34247;50.064;19.970;2022-12-29T06:01:33;99169.78;;;6.35;59.90
21086;BME280;34247;50.064;19.970;2022-12-29T06:02:41;99169.03;;;6.33;59.95
21086;BME280;34247;50.064;19.970;2022-12-29T06:03:44;99166.41;;;6.33;59.82
21086;BME280;34247;50.064;19.970;2022-12-29T06:04:52;99160.34;;;6.31;60.04
21086;BME280;34247;50.064;19.970;2022-12-29T06:05:55;99172.59;;;6.32;59.80
21086;BME280;34247;50.064;19.970;2022-12-29T06:07:00;99163.84;;;6.32;60.19
21086;BME280;34247;50.064;19.970;2022-12-29T06:08:05;99163.00;;;6.31;59.80
21086;BME280;34247;50.064;19.970;2022-12-29T06:09:13;99164.69;;;6.32;59.94
21086;BME280;34247;50.064;19.970;2022-12-29T06:10:21;99157.72;;;6.31;60.19
21086;BME280;34247;50.064;19.970;2022-12-29T06:11:26;99151.50;;;6.32;60.19
21086;BME280;34247;50.064;19.970;2022-12-29T06:12:31;99155.09;;;6.31;59.84
21086;BME280;34247;50.064;19.970;2022-12-29T06:13:36;99150.75;;;6.30;60.29
21086;BME280;34247;50.064;19.970;2022-12-29T06:14:42;99149.81;;;6.31;60.22
21086;BME280;34247;50.064;19.970;2022-12-29T06:15:49;99159.56;;;6.29;59.89
21086;BME280;34247;50.064;19.970;2022-12-29T06:16:53;99157.03;;;6.28;60.13
21086;BME280;34247;50.064;19.970;2022-12-29T06:17:57;99156.34;;;6.24;60.13
21086;BME280;34247;50.064;19.970;2022-12-29T06:19:00;99150.97;;;6.26;60.30
21086;BME280;34247;50.064;19.970;2022-12-29T06:20:07;99155.41;;;6.25;60.17
21086;BME280;34247;50.064;19.970;2022-12-29T06:21:12;99146.75;;;6.23;60.54
21086;BME280;34247;50.064;19.970;2022-12-29T06:22:17;99154.56;;;6.25;60.68
21086;BME280;34247;50.064;19.970;2022-12-29T06:23:21;99150.22;;;6.24;60.40
21086;BME280;34247;50.064;19.970;2022-12-29T06:24:27;99165.19;;;6.23;60.41
21086;BME280;34247;50.064;19.970;2022-12-29T06:25:32;99165.09;;;6.25;60.31
21086;BME280;34247;50.064;19.970;2022-12-29T06:26:38;99164.31;;;6.23;60.49
21086;BME280;34247;50.064;19.970;2022-12-29T06:27:44;99164.38;;;6.21;60.71
21086;BME280;34247;50.064;19.970;2022-12-29T06:28:53;99162.88;;;6.17;60.73
21086;BME280;34247;50.064;19.970;2022-12-29T06:29:58;99172.56;;;6.17;60.87
21086;BME280;34247;50.064;19.970;2022-12-29T06:31:08;99162.06;;;6.15;60.83
21086;BME280;34247;50.064;19.970;2022-12-29T06:32:13;99169.22;;;6.13;61.07
21086;BME280;34247;50.064;19.970;2022-12-29T06:33:17;99156.22;;;6.10;60.84
21086;BME280;34247;50.064;19.970;2022-12-29T06:34:23;99163.31;;;6.08;61.04
21086;BME280;34247;50.064;19.970;2022-12-29T06:35:29;99172.25;;;6.05;61.44
21086;BME280;34247;50.064;19.970;2022-12-29T06:36:34;99175.09;;;6.01;61.44
21086;BME280;34247;50.064;19.970;2022-12-29T06:37:37;99171.88;;;5.96;61.63
21086;BME280;34247;50.064;19.970;2022-12-29T06:38:42;99176.31;;;5.95;62.07
21086;BME280;34247;50.064;19.970;2022-12-29T06:39:47;99171.09;;;5.94;62.24
21086;BME280;34247;50.064;19.970;2022-12-29T06:40:52;99163.34;;;5.91;62.62
21086;BME280;34247;50.064;19.970;2022-12-29T06:41:55;99170.38;;;5.90;62.36
21086;BME280;34247;50.064;19.970;2022-12-29T06:42:59;99162.56;;;5.89;62.75
21086;BME280;34247;50.064;19.970;2022-12-29T06:44:03;99160.91;;;5.86;62.75
21086;BME280;34247;50.064;19.970;2022-12-29T06:45:11;99163.63;;;5.85;62.67
21086;BME280;34247;50.064;19.970;2022-12-29T06:46:20;99157.69;;;5.81;63.13